sensor_id;sensor_type;location;lat;lon;timestamp;P1;durP1;ratioP1;P2;durP2;ratioP2
16804;SDS011;8520;50.102;20.010;2024-01-25T04:53:20;19.93;;;18.43;;
16804;SDS011;8520;50.102;20.010;2024-01-25T04:55:48;17.17;;;15.87;;
16804;SDS011;8520;50.102;20.010;2024-01-25T04:58:16;14.67;;;13.67;;
16804;SDS011;8520;50.102;20.010;2024-01-25T05:00:44;13.07;;;11.77;;
16804;SDS011;8520;50.102;20.010;2024-01-25T05:03:12;11.50;;;10.70;;
16804;SDS011;8520;50.102;20.010;2024-01-25T05:05:40;12.70;;;10.60;;
16804;SDS011;8520;50.102;20.010;2024-01-25T05:08:08;9.90;;;9.07;;
16804;SDS011;8520;50.102;20.010;2024-01-25T05:10:38;9.33;;;8.20;;
16804;SDS011;8520;50.102;20.010;2024-01-25T05:13:05;8.63;;;7.93;;
16804;SDS011;8520;50.102;20.010;2024-01-25T05:15:34;9.27;;;7.80;;
16804;SDS011;8520;50.102;20.010;2024-01-25T05:18:02;7.60;;;6.90;;
16804;SDS011;8520;50.102;20.010;2024-01-25T05:20:31;9.57;;;7.70;;
16804;SDS011;8520;50.102;20.010;2024-01-25T05:23:01;7.27;;;6.37;;
16804;SDS011;8520;50.102;20.010;2024-01-25T05:25:29;7.97;;;6.23;;
16804;SDS011;8520;50.102;20.010;2024-01-25T05:27:59;8.17;;;6.63;;
16804;SDS011;8520;50.102;20.010;2024-01-25T05:30:27;6.70;;;6.17;;
16804;SDS011;8520;50.102;20.010;2024-01-25T05:32:56;8.77;;;5.67;;
16804;SDS011;8520;50.102;20.010;2024-01-25T05:35:24;8.30;;;6.57;;
16804;SDS011;8520;50.102;20.010;2024-01-25T05:37:53;6.30;;;5.80;;
16804;SDS011;8520;50.102;20.010;2024-01-25T05:40:21;9.73;;;7.07;;
16804;SDS011;8520;50.102;20.010;2024-01-25T05:42:49;9.87;;;6.27;;
16804;SDS011;8520;50.102;20.010;2024-01-25T05:45:29;9.43;;;6.80;;
16804;SDS011;8520;50.102;20.010;2024-01-25T05:48:03;7.77;;;7.07;;
16804;SDS011;8520;50.102;20.010;2024-01-25T05:50:35;7.80;;;7.10;;
16804;SDS011;8520;50.102;20.010;2024-01-25T05:53:04;8.20;;;7.43;;
16804;SDS011;8520;50.102;20.010;2024-01-25T05:55:32;9.20;;;8.23;;
16804;SDS011;8520;50.102;20.010;2024-01-25T05:58:00;7.70;;;7.00;;
16804;SDS011;8520;50.102;20.010;2024-01-25T14:05:04;13.90;;;12.40;;
16804;SDS011;8520;50.102;20.010;2024-01-25T14:07:33;15.30;;;13.70;;
16804;SDS011;8520;50.102;20.010;2024-01-25T14:10:02;13.93;;;12.77;;
16804;SDS011;8520;50.102;20.010;2024-01-25T14:12:30;14.43;;;13.07;;
16804;SDS011;8520;50.102;20.010;2024-01-25T14:14:58;14.17;;;12.97;;
16804;SDS011;8520;50.102;20.010;2024-01-25T14:17:26;14.97;;;13.77;;
16804;SDS011;8520;50.102;20.010;2024-01-25T14:19:54;15.37;;;14.00;;
16804;SDS011;8520;50.102;20.010;2024-01-25T14:22:24;16.07;;;14.60;;
16804;SDS011;8520;50.102;20.010;2024-01-25T14:24:58;16.03;;;14.47;;
16804;SDS011;8520;50.102;20.010;2024-01-25T14:27:27;17.27;;;15.67;;
16804;SDS011;8520;50.102;20.010;2024-01-25T14:29:55;17.70;;;16.10;;
16804;SDS011;8520;50.102;20.010;2024-01-25T14:32:23;16.97;;;15.57;;
16804;SDS011;8520;50.102;20.010;2024-01-25T14:34:52;17.63;;;16.00;;
16804;SDS011;8520;50.102;20.010;2024-01-25T14:37:20;18.13;;;16.53;;
16804;SDS011;8520;50.102;20.010;2024-01-25T14:39:49;18.93;;;17.50;;
16804;SDS011;8520;50.102;20.010;2024-01-25T14:42:37;19.13;;;17.63;;
16804;SDS011;8520;50.102;20.010;2024-01-25T14:45:05;19.10;;;17.70;;
16804;SDS011;8520;50.102;20.010;2024-01-25T14:47:33;19.73;;;18.23;;
16804;SDS011;8520;50.102;20.010;2024-01-25T14:50:02;20.10;;;18.67;;
16804;SDS011;8520;50.102;20.010;2024-01-25T14:52:30;21.33;;;19.63;;
16804;SDS011;8520;50.102;20.010;2024-01-25T14:55:02;22.53;;;20.63;;
16804;SDS011;8520;50.102;20.010;2024-01-25T14:57:31;21.13;;;19.67;;
16804;SDS011;8520;50.102;20.010;2024-01-25T14:59:59;20.43;;;18.80;;
16804;SDS011;8520;50.102;20.010;2024-01-25T15:02:27;20.50;;;19.03;;
16804;SDS011;8520;50.102;20.010;2024-01-25T15:04:55;20.43;;;18.63;;
16804;SDS011;8520;50.102;20.010;2024-01-25T15:07:23;22.10;;;20.13;;
16804;SDS011;8520;50.102;20.010;2024-01-25T15:09:51;21.07;;;19.00;;
16804;SDS011;8520;50.102;20.010;2024-01-25T15:12:21;20.17;;;18.37;;
16804;SDS011;8520;50.102;20.010;2024-01-25T15:14:49;22.07;;;20.10;;
16804;SDS011;8520;50.102;20.010;2024-01-25T15:17:17;22.67;;;20.87;;
16804;SDS011;8520;50.102;20.010;2024-01-25T15:19:45;24.30;;;22.33;;
16804;SDS011;8520;50.102;20.010;2024-01-25T15:22:14;24.87;;;22.57;;
16804;SDS011;8520;50.102;20.010;2024-01-25T15:24:42;24.60;;;23.10;;
16804;SDS011;8520;50.102;20.010;2024-01-25T15:27:10;25.67;;;23.63;;
16804;SDS011;8520;50.102;20.010;2024-01-25T15:29:39;25.80;;;23.83;;
16804;SDS011;8520;50.102;20.010;2024-01-25T16:53:02;41.87;;;39.20;;
16804;SDS011;8520;50.102;20.010;2024-01-25T16:55:30;43.63;;;40.63;;
16804;SDS011;8520;50.102;20.010;2024-01-25T16:57:58;43.13;;;40.23;;
16804;SDS011;8520;50.102;20.010;2024-01-25T17:00:27;44.30;;;40.93;;
16804;SDS011;8520;50.102;20.010;2024-01-25T17:02:56;43.67;;;40.77;;
16804;SDS011;8520;50.102;20.010;2024-01-25T17:05:24;41.83;;;39.17;;
16804;SDS011;8520;50.102;20.010;2024-01-25T17:07:52;38.10;;;35.96;;
16804;SDS011;8520;50.102;20.010;2024-01-25T17:10:22;44.33;;;41.67;;
16804;SDS011;8520;50.102;20.010;2024-01-25T17:12:50;43.20;;;40.47;;
16804;SDS011;8520;50.102;20.010;2024-01-25T17:15:18;42.50;;;39.63;;
16804;SDS011;8520;50.102;20.010;2024-01-25T17:17:46;42.20;;;39.60;;
16804;SDS011;8520;50.102;20.010;2024-01-25T17:20:14;42.10;;;38.80;;
16804;SDS011;8520;50.102;20.010;2024-01-25T17:22:44;42.30;;;39.43;;
16804;SDS011;8520;50.102;20.010;2024-01-25T17:25:25;42.39;;;39.64;;
16804;SDS011;8520;50.102;20.010;2024-01-25T17:27:56;36.93;;;34.58;;
16804;SDS011;8520;50.102;20.010;2024-01-25T17:30:24;41.87;;;39.20;;
16804;SDS011;8520;50.102;20.010;2024-01-25T17:32:52;42.17;;;39.47;;
16804;SDS011;8520;50.102;20.010;2024-01-25T17:35:21;42.80;;;39.70;;
16804;SDS011;8520;50.102;20.010;2024-01-25T17:37:49;42.80;;;40.00;;
16804;SDS011;8520;50.102;20.010;2024-01-25T17:40:17;43.00;;;39.80;;
16804;SDS011;8520;50.102;20.010;2024-01-25T17:42:48;43.57;;;40.43;;
16804;SDS011;8520;50.102;20.010;2024-01-25T17:45:16;43.20;;;40.37;;
16804;SDS011;8520;50.102;20.010;2024-01-25T17:47:44;43.70;;;40.90;;
16804;SDS011;8520;50.102;20.010;2024-01-25T17:50:12;45.40;;;42.17;;
16804;SDS011;8520;50.102;20.010;2024-01-25T17:52:40;46.50;;;43.33;;
16804;SDS011;8520;50.102;20.010;2024-01-25T17:55:08;46.17;;;43.23;;
16804;SDS011;8520;50.102;20.010;2024-01-25T17:57:36;47.50;;;44.23;;
16804;SDS011;8520;50.102;20.010;2024-01-25T18:00:06;47.80;;;44.40;;
16804;SDS011;8520;50.102;20.010;2024-01-25T18:02:34;49.10;;;45.53;;
16804;SDS011;8520;50.102;20.010;2024-01-25T18:05:04;49.23;;;45.77;;
16804;SDS011;8520;50.102;20.010;2024-01-25T18:07:32;48.53;;;45.40;;
16804;SDS011;8520;50.102;20.010;2024-01-25T18:10:00;49.90;;;46.80;;
16804;SDS011;8520;50.102;20.010;2024-01-25T18:12:28;50.30;;;47.03;;
16804;SDS011;8520;50.102;20.010;2024-01-25T18:14:57;51.43;;;48.30;;
16804;SDS011;8520;50.102;20.010;2024-01-25T18:17:27;52.63;;;49.47;;
16804;SDS011;8520;50.102;20.010;2024-01-25T18:19:55;52.80;;;49.53;;
16804;SDS011;8520;50.102;20.010;2024-01-25T18:22:23;54.03;;;50.63;;
16804;SDS011;8520;50.102;20.010;2024-01-25T18:24:51;55.07;;;51.43;;
16804;SDS011;8520;50.102;20.010;2024-01-25T18:27:19;56.93;;;53.30;;
16804;SDS011;8520;50.102;20.010;2024-01-25T18:29:47;57.67;;;53.93;;
16804;SDS011;8520;50.102;20.010;2024-01-25T18:32:15;58.17;;;54.57;;
16804;SDS011;8520;50.102;20.010;2024-01-25T18:34:44;59.40;;;55.20;;
16804;SDS011;8520;50.102;20.010;2024-01-25T18:37:12;58.67;;;54.97;;
16804;SDS011;8520;50.102;20.010;2024-01-25T18:39:40;59.17;;;55.70;;
16804;SDS011;8520;50.102;20.010;2024-01-25T18:42:10;59.08;;;55.42;;
16804;SDS011;8520;50.102;20.010;2024-01-25T18:44:39;60.40;;;56.13;;
16804;SDS011;8520;50.102;20.010;2024-01-25T18:47:07;60.97;;;57.07;;
16804;SDS011;8520;50.102;20.010;2024-01-25T18:49:36;61.20;;;57.27;;
16804;SDS011;8520;50.102;20.010;2024-01-25T18:52:06;61.33;;;57.47;;
16804;SDS011;8520;50.102;20.010;2024-01-25T18:54:36;61.13;;;57.03;;
16804;SDS011;8520;50.102;20.010;2024-01-25T18:57:05;61.97;;;57.67;;
16804;SDS011;8520;50.102;20.010;2024-01-25T18:59:33;61.60;;;57.70;;
16804;SDS011;8520;50.102;20.010;2024-01-25T19:02:01;61.20;;;57.17;;
16804;SDS011;8520;50.102;20.010;2024-01-25T19:04:30;60.53;;;56.63;;
16804;SDS011;8520;50.102;20.010;2024-01-25T19:06:58;61.00;;;56.80;;
16804;SDS011;8520;50.102;20.010;2024-01-25T19:09:27;60.73;;;56.63;;
16804;SDS011;8520;50.102;20.010;2024-01-25T19:11:55;60.57;;;56.50;;
16804;SDS011;8520;50.102;20.010;2024-01-25T19:14:23;58.77;;;54.93;;
16804;SDS011;8520;50.102;20.010;2024-01-25T19:16:51;58.70;;;54.73;;
16804;SDS011;8520;50.102;20.010;2024-01-25T19:19:19;58.03;;;54.03;;
16804;SDS011;8520;50.102;20.010;2024-01-25T19:21:48;58.37;;;54.23;;
16804;SDS011;8520;50.102;20.010;2024-01-25T19:24:16;56.97;;;52.80;;
16804;SDS011;8520;50.102;20.010;2024-01-25T19:26:47;55.23;;;51.93;;
16804;SDS011;8520;50.102;20.010;2024-01-25T19:29:15;55.43;;;51.63;;
16804;SDS011;8520;50.102;20.010;2024-01-25T19:31:44;54.63;;;50.83;;
16804;SDS011;8520;50.102;20.010;2024-01-25T19:34:12;55.20;;;51.70;;
16804;SDS011;8520;50.102;20.010;2024-01-25T19:36:40;53.37;;;50.30;;
16804;SDS011;8520;50.102;20.010;2024-01-25T19:39:10;56.30;;;52.40;;
16804;SDS011;8520;50.102;20.010;2024-01-25T19:41:38;56.23;;;52.70;;
16804;SDS011;8520;50.102;20.010;2024-01-25T19:44:08;56.97;;;53.27;;
16804;SDS011;8520;50.102;20.010;2024-01-25T19:46:36;58.03;;;54.07;;
16804;SDS011;8520;50.102;20.010;2024-01-25T19:49:05;59.40;;;55.13;;
16804;SDS011;8520;50.102;20.010;2024-01-25T19:51:34;59.43;;;55.70;;
16804;SDS011;8520;50.102;20.010;2024-01-25T19:54:12;61.83;;;57.47;;
16804;SDS011;8520;50.102;20.010;2024-01-25T19:56:40;62.57;;;58.33;;
16804;SDS011;8520;50.102;20.010;2024-01-25T19:59:10;62.60;;;58.33;;
16804;SDS011;8520;50.102;20.010;2024-01-25T20:01:38;62.73;;;58.50;;
16804;SDS011;8520;50.102;20.010;2024-01-25T20:04:07;63.23;;;59.03;;
16804;SDS011;8520;50.102;20.010;2024-01-25T20:06:35;63.13;;;59.13;;
16804;SDS011;8520;50.102;20.010;2024-01-25T20:09:05;63.50;;;59.27;;
16804;SDS011;8520;50.102;20.010;2024-01-25T20:11:33;62.93;;;58.83;;
16804;SDS011;8520;50.102;20.010;2024-01-25T20:14:01;62.33;;;58.07;;
16804;SDS011;8520;50.102;20.010;2024-01-25T20:16:30;61.17;;;57.40;;
16804;SDS011;8520;50.102;20.010;2024-01-25T20:18:58;61.07;;;57.30;;
16804;SDS011;8520;50.102;20.010;2024-01-25T20:21:27;61.53;;;57.10;;
16804;SDS011;8520;50.102;20.010;2024-01-25T20:23:55;60.27;;;56.10;;
16804;SDS011;8520;50.102;20.010;2024-01-25T20:26:23;60.30;;;56.20;;
16804;SDS011;8520;50.102;20.010;2024-01-25T20:28:50;60.30;;;56.23;;
16804;SDS011;8520;50.102;20.010;2024-01-25T20:31:18;58.73;;;54.70;;
16804;SDS011;8520;50.102;20.010;2024-01-25T20:33:48;58.80;;;54.73;;
16804;SDS011;8520;50.102;20.010;2024-01-25T20:36:17;57.43;;;53.67;;
16804;SDS011;8520;50.102;20.010;2024-01-25T20:38:45;57.33;;;53.63;;
16804;SDS011;8520;50.102;20.010;2024-01-25T20:41:13;56.53;;;52.47;;
16804;SDS011;8520;50.102;20.010;2024-01-25T20:43:41;56.07;;;52.27;;
16804;SDS011;8520;50.102;20.010;2024-01-25T20:46:11;55.80;;;52.37;;
16804;SDS011;8520;50.102;20.010;2024-01-25T20:48:40;56.87;;;52.93;;
16804;SDS011;8520;50.102;20.010;2024-01-25T20:51:09;56.70;;;52.77;;
16804;SDS011;8520;50.102;20.010;2024-01-25T20:53:37;58.77;;;54.23;;
16804;SDS011;8520;50.102;20.010;2024-01-25T20:56:16;56.83;;;53.17;;
16804;SDS011;8520;50.102;20.010;2024-01-25T20:58:44;57.43;;;53.47;;
16804;SDS011;8520;50.102;20.010;2024-01-25T21:01:13;58.30;;;54.37;;
16804;SDS011;8520;50.102;20.010;2024-01-25T21:03:41;58.13;;;54.27;;
16804;SDS011;8520;50.102;20.010;2024-01-25T21:06:11;60.13;;;55.57;;
16804;SDS011;8520;50.102;20.010;2024-01-25T21:08:40;59.50;;;55.40;;
16804;SDS011;8520;50.102;20.010;2024-01-25T21:11:10;58.27;;;54.13;;
16804;SDS011;8520;50.102;20.010;2024-01-25T21:13:38;58.43;;;54.67;;
16804;SDS011;8520;50.102;20.010;2024-01-25T21:16:07;59.03;;;54.83;;
16804;SDS011;8520;50.102;20.010;2024-01-25T21:18:36;59.17;;;55.03;;
16804;SDS011;8520;50.102;20.010;2024-01-25T21:21:12;60.60;;;56.23;;
16804;SDS011;8520;50.102;20.010;2024-01-25T21:23:40;59.80;;;55.43;;
16804;SDS011;8520;50.102;20.010;2024-01-25T21:26:08;58.63;;;54.17;;
16804;SDS011;8520;50.102;20.010;2024-01-25T21:28:36;58.60;;;54.30;;
16804;SDS011;8520;50.102;20.010;2024-01-25T21:31:04;53.33;;;50.07;;
16804;SDS011;8520;50.102;20.010;2024-01-25T21:33:32;53.27;;;49.77;;
16804;SDS011;8520;50.102;20.010;2024-01-25T21:36:01;50.60;;;47.17;;
16804;SDS011;8520;50.102;20.010;2024-01-25T21:38:30;48.50;;;45.27;;
16804;SDS011;8520;50.102;20.010;2024-01-25T21:40:59;49.53;;;45.80;;
16804;SDS011;8520;50.102;20.010;2024-01-25T21:43:27;49.93;;;46.20;;
16804;SDS011;8520;50.102;20.010;2024-01-25T21:45:55;49.17;;;45.80;;
16804;SDS011;8520;50.102;20.010;2024-01-25T21:48:24;50.10;;;46.60;;
16804;SDS011;8520;50.102;20.010;2024-01-25T21:50:52;49.23;;;46.03;;
16804;SDS011;8520;50.102;20.010;2024-01-25T21:53:20;51.17;;;47.37;;
16804;SDS011;8520;50.102;20.010;2024-01-25T21:55:50;50.93;;;47.40;;
16804;SDS011;8520;50.102;20.010;2024-01-25T21:58:18;52.37;;;48.67;;
16804;SDS011;8520;50.102;20.010;2024-01-25T22:00:46;51.90;;;48.30;;
16804;SDS011;8520;50.102;20.010;2024-01-25T22:03:14;51.63;;;48.30;;
16804;SDS011;8520;50.102;20.010;2024-01-25T22:05:42;50.57;;;47.17;;
16804;SDS011;8520;50.102;20.010;2024-01-25T22:08:10;49.43;;;45.93;;
16804;SDS011;8520;50.102;20.010;2024-01-25T22:10:40;48.30;;;45.07;;
16804;SDS011;8520;50.102;20.010;2024-01-25T22:13:10;46.40;;;43.67;;
16804;SDS011;8520;50.102;20.010;2024-01-25T22:15:38;47.93;;;44.50;;
16804;SDS011;8520;50.102;20.010;2024-01-25T22:18:06;46.13;;;43.20;;
16804;SDS011;8520;50.102;20.010;2024-01-25T22:20:34;46.17;;;43.03;;
16804;SDS011;8520;50.102;20.010;2024-01-25T22:23:03;43.17;;;40.57;;
16804;SDS011;8520;50.102;20.010;2024-01-25T22:25:32;42.70;;;39.70;;
16804;SDS011;8520;50.102;20.010;2024-01-25T22:28:00;40.37;;;37.80;;
16804;SDS011;8520;50.102;20.010;2024-01-25T22:30:29;41.57;;;38.53;;
16804;SDS011;8520;50.102;20.010;2024-01-25T22:32:57;39.40;;;36.80;;
16804;SDS011;8520;50.102;20.010;2024-01-25T22:35:25;38.73;;;36.13;;
16804;SDS011;8520;50.102;20.010;2024-01-25T22:37:53;35.60;;;33.33;;
16804;SDS011;8520;50.102;20.010;2024-01-25T22:40:21;36.67;;;34.33;;
16804;SDS011;8520;50.102;20.010;2024-01-25T22:42:49;36.17;;;33.60;;
16804;SDS011;8520;50.102;20.010;2024-01-25T22:45:17;34.73;;;32.63;;
16804;SDS011;8520;50.102;20.010;2024-01-25T22:47:49;34.73;;;32.33;;
16804;SDS011;8520;50.102;20.010;2024-01-25T22:50:17;35.00;;;32.57;;
16804;SDS011;8520;50.102;20.010;2024-01-25T22:52:45;34.20;;;32.07;;
16804;SDS011;8520;50.102;20.010;2024-01-25T22:55:14;33.63;;;31.73;;
16804;SDS011;8520;50.102;20.010;2024-01-25T22:57:41;33.63;;;31.73;;
16804;SDS011;8520;50.102;20.010;2024-01-25T23:00:10;34.27;;;32.07;;
16804;SDS011;8520;50.102;20.010;2024-01-25T23:02:46;35.33;;;32.93;;
16804;SDS011;8520;50.102;20.010;2024-01-25T23:05:15;36.50;;;34.00;;
16804;SDS011;8520;50.102;20.010;2024-01-25T23:07:47;36.77;;;34.50;;
16804;SDS011;8520;50.102;20.010;2024-01-25T23:10:15;38.77;;;36.27;;
16804;SDS011;8520;50.102;20.010;2024-01-25T23:12:45;39.90;;;37.50;;
16804;SDS011;8520;50.102;20.010;2024-01-25T23:15:13;40.07;;;37.87;;
16804;SDS011;8520;50.102;20.010;2024-01-25T23:17:41;40.20;;;38.00;;
16804;SDS011;8520;50.102;20.010;2024-01-25T23:20:10;38.37;;;36.67;;
16804;SDS011;8520;50.102;20.010;2024-01-25T23:22:40;38.80;;;36.77;;
16804;SDS011;8520;50.102;20.010;2024-01-25T23:25:08;38.37;;;36.57;;
16804;SDS011;8520;50.102;20.010;2024-01-25T23:27:36;38.43;;;36.63;;
16804;SDS011;8520;50.102;20.010;2024-01-25T23:30:04;39.43;;;37.53;;
16804;SDS011;8520;50.102;20.010;2024-01-25T23:32:32;40.70;;;38.70;;
16804;SDS011;8520;50.102;20.010;2024-01-25T23:35:01;43.43;;;41.20;;
16804;SDS011;8520;50.102;20.010;2024-01-25T23:37:30;43.57;;;41.47;;
16804;SDS011;8520;50.102;20.010;2024-01-25T23:39:59;45.87;;;43.57;;
16804;SDS011;8520;50.102;20.010;2024-01-25T23:42:28;47.73;;;45.40;;
16804;SDS011;8520;50.102;20.010;2024-01-25T23:44:56;48.60;;;46.30;;
16804;SDS011;8520;50.102;20.010;2024-01-25T23:47:24;50.40;;;47.97;;
16804;SDS011;8520;50.102;20.010;2024-01-25T23:49:54;50.67;;;48.27;;
16804;SDS011;8520;50.102;20.010;2024-01-25T23:52:22;51.87;;;49.27;;
16804;SDS011;8520;50.102;20.010;2024-01-25T23:54:50;51.60;;;49.20;;
16804;SDS011;8520;50.102;20.010;2024-01-25T23:57:20;50.97;;;48.67;;
16804;SDS011;8520;50.102;20.010;2024-01-25T23:59:48;50.37;;;48.07;;
